Time;durP1;ratioP1;P1;durP2;ratioP2;P2;SDS_P1;SDS_P2;PMS_P1;PMS_P2;Temp;Humidity;BMP_temperature;BMP_pressure;BME280_temperature;BME280_humidity;BME280_pressure;Samples;Min_cycle;Max_cycle;Signal;HPM_P1;HPM_P2
2021/04/17 00:00:37;;;;;;;6.10;2.75;;;13.10;91.30;;;;;;5035927;28;20099;-49
2021/04/17 00:03:04;;;;;;;6.63;2.10;;;13.00;91.10;;;;;;5053689;28;20041;-53
2021/04/17 00:05:31;;;;;;;5.15;2.30;;;13.10;91.00;;;;;;5053002;28;20123;-48
2021/04/17 00:07:58;;;;;;;6.25;2.60;;;13.00;91.00;;;;;;5053397;28;20048;-50
2021/04/17 00:10:25;;;;;;;4.95;2.30;;;12.90;91.00;;;;;;5051449;28;20501;-51
2021/04/17 00:12:53;;;;;;;4.65;2.10;;;13.00;90.90;;;;;;5047638;28;20162;-48
2021/04/17 00:15:20;;;;;;;4.45;2.58;;;13.00;91.00;;;;;;5045963;28;20041;-48
2021/04/17 00:17:47;;;;;;;4.05;2.00;;;13.00;90.90;;;;;;5051090;28;20049;-49
2021/04/17 00:20:15;;;;;;;6.75;2.00;;;13.00;91.00;;;;;;5052530;28;20131;-50
2021/04/17 00:22:42;;;;;;;4.32;2.38;;;13.00;91.20;;;;;;5053102;28;20045;-50
2021/04/17 00:25:09;;;;;;;4.57;3.08;;;13.00;91.40;;;;;;5042753;28;20570;-48
2021/04/17 00:27:37;;;;;;;6.10;2.20;;;13.00;91.50;;;;;;5047420;28;20068;-49
2021/04/17 00:30:05;;;;;;;4.75;2.40;;;12.90;91.50;;;;;;5052745;28;20459;-48
2021/04/17 00:32:32;;;;;;;3.63;2.40;;;13.00;91.40;;;;;;5051643;28;20037;-52
2021/04/17 00:34:59;;;;;;;8.48;2.92;;;12.90;91.30;;;;;;5052343;28;20407;-51
2021/04/17 00:37:26;;;;;;;4.97;2.00;;;12.90;91.10;;;;;;5053295;28;20048;-47
2021/04/17 00:39:57;;;;;;;12.13;2.40;;;12.90;90.90;;;;;;5052855;28;20419;-48
2021/04/17 00:42:24;;;;;;;5.57;2.53;;;12.90;90.90;;;;;;5053151;28;20509;-48
2021/04/17 00:44:51;;;;;;;7.57;2.40;;;12.90;90.90;;;;;;5052700;28;20030;-49
2021/04/17 00:47:18;;;;;;;4.35;2.50;;;12.90;90.90;;;;;;5051262;28;20052;-52
2021/04/17 00:49:58;;;;;;;3.25;2.15;;;12.90;90.90;;;;;;5053062;28;20391;-49
2021/04/17 00:52:26;;;;;;;4.90;2.33;;;12.80;91.00;;;;;;5043930;28;20060;-48
2021/04/17 00:54:54;;;;;;;2.47;1.83;;;12.90;91.00;;;;;;5050286;28;20415;-48
2021/04/17 00:57:21;;;;;;;4.82;2.42;;;12.90;91.00;;;;;;5043490;28;20040;-49
2021/04/17 00:59:49;;;;;;;4.45;2.13;;;12.90;91.10;;;;;;5051752;28;20132;-52
2021/04/17 01:02:24;;;;;;;5.60;3.10;;;12.90;90.90;;;;;;5052575;28;20495;-49
2021/04/17 01:04:52;;;;;;;6.05;2.35;;;12.90;90.90;;;;;;5051725;28;20047;-50
2021/04/17 01:07:23;;;;;;;3.75;2.03;;;12.90;90.90;;;;;;5050762;28;20076;-48
2021/04/17 01:09:53;;;;;;;3.65;2.40;;;13.00;90.70;;;;;;5051842;28;20609;-53
2021/04/17 01:12:30;;;;;;;7.20;2.75;;;12.90;90.40;;;;;;5050588;28;20041;-50
2021/04/17 01:15:02;;;;;;;4.60;2.20;;;12.90;90.30;;;;;;5051750;28;20045;-51
2021/04/17 01:17:31;;;;;;;4.03;2.25;;;12.90;90.30;;;;;;5052402;28;20049;-50
2021/04/17 01:20:20;;;;;;;3.72;2.58;;;12.90;90.40;;;;;;5050855;28;20047;-49
2021/04/17 01:23:24;;;;;;;8.82;2.83;;;12.90;90.50;;;;;;5052219;28;20049;-48
2021/04/17 01:26:20;;;;;;;3.58;2.78;;;12.90;90.50;;;;;;5051919;28;20088;-50
2021/04/17 01:28:51;;;;;;;4.95;1.88;;;13.00;90.70;;;;;;5033576;28;20049;-48
2021/04/17 01:31:20;;;;;;;4.10;2.17;;;12.90;91.00;;;;;;5050717;28;20048;-50
2021/04/17 01:33:51;;;;;;;3.45;1.98;;;12.90;91.10;;;;;;5055347;28;20044;-48
2021/04/17 01:36:20;;;;;;;4.93;2.78;;;12.90;91.30;;;;;;5054556;28;20041;-48
2021/04/17 01:39:17;;;;;;;4.82;2.40;;;12.90;91.40;;;;;;5056229;28;20053;-50
2021/04/17 01:41:51;;;;;;;3.45;2.00;;;12.90;91.40;;;;;;5054651;28;20049;-47
2021/04/17 01:44:18;;;;;;;3.83;2.38;;;12.90;91.40;;;;;;5055883;28;20067;-48
2021/04/17 01:46:49;;;;;;;3.67;2.10;;;12.80;91.30;;;;;;5055097;28;20127;-48
2021/04/17 01:49:19;;;;;;;3.78;2.63;;;12.80;90.90;;;;;;5055740;28;20049;-49
2021/04/17 01:51:49;;;;;;;4.60;1.98;;;12.80;90.90;;;;;;5056370;28;20061;-50
2021/04/17 01:54:22;;;;;;;6.43;2.22;;;12.90;90.80;;;;;;5055637;28;20153;-48
2021/04/17 01:56:52;;;;;;;5.85;2.20;;;12.90;90.80;;;;;;5056140;28;20503;-48
2021/04/17 01:59:21;;;;;;;4.68;2.42;;;12.90;90.70;;;;;;5055209;28;20114;-50
2021/04/17 02:01:48;;;;;;;2.85;1.83;;;12.90;90.80;;;;;;5056290;28;20510;-47
2021/04/17 02:04:16;;;;;;;5.85;2.58;;;12.80;91.00;;;;;;5055604;28;20131;-50
2021/04/17 02:06:44;;;;;;;4.43;2.35;;;12.80;91.20;;;;;;5054713;28;20045;-48
2021/04/17 02:09:12;;;;;;;4.90;2.42;;;12.80;91.20;;;;;;5055457;28;20503;-48
2021/04/17 02:11:39;;;;;;;3.70;2.00;;;12.80;91.10;;;;;;5054883;28;20102;-48
2021/04/17 02:14:10;;;;;;;7.28;2.25;;;12.80;91.10;;;;;;5055020;28;20056;-49
2021/04/17 02:17:02;;;;;;;5.95;2.00;;;12.70;90.90;;;;;;5054178;28;20049;-48
2021/04/17 02:19:43;;;;;;;2.97;1.55;;;12.80;91.00;;;;;;5055231;28;20073;-47
2021/04/17 02:22:11;;;;;;;4.05;2.15;;;12.80;90.90;;;;;;5055979;28;20084;-49
2021/04/17 02:24:39;;;;;;;3.80;1.73;;;12.80;90.80;;;;;;5055164;28;20120;-50
2021/04/17 02:27:10;;;;;;;4.68;1.75;;;12.70;90.90;;;;;;5055490;28;20072;-50
2021/04/17 02:29:37;;;;;;;8.23;2.20;;;12.70;90.80;;;;;;5055239;28;20124;-49
2021/04/17 02:32:05;;;;;;;3.17;1.90;;;12.70;90.70;;;;;;5054522;28;20049;-51
2021/04/17 02:34:32;;;;;;;3.15;2.08;;;12.80;90.70;;;;;;5055316;28;20098;-48
2021/04/17 02:36:59;;;;;;;5.82;1.75;;;12.80;90.70;;;;;;5053888;28;20045;-48
2021/04/17 02:39:26;;;;;;;4.20;2.08;;;12.80;90.70;;;;;;5053960;28;20091;-48
2021/04/17 02:41:54;;;;;;;6.22;2.10;;;12.70;90.60;;;;;;5051537;28;20511;-49
2021/04/17 02:44:21;;;;;;;3.63;2.13;;;12.70;90.60;;;;;;5054308;28;20132;-48
2021/04/17 02:46:48;;;;;;;3.58;2.40;;;12.70;90.50;;;;;;5055167;28;20037;-48
2021/04/17 02:49:15;;;;;;;3.42;1.92;;;12.70;90.50;;;;;;5054804;28;20049;-48
2021/04/17 02:51:43;;;;;;;3.63;2.00;;;12.70;90.50;;;;;;5053728;28;20091;-48
2021/04/17 02:54:11;;;;;;;4.45;2.00;;;12.70;90.60;;;;;;5054516;28;20045;-49
2021/04/17 02:56:38;;;;;;;4.65;2.15;;;12.80;90.70;;;;;;5053095;28;20503;-49
2021/04/17 02:59:05;;;;;;;7.80;2.38;;;12.80;90.90;;;;;;5054592;28;20040;-49
2021/04/17 03:01:32;;;;;;;4.35;2.45;;;12.80;91.10;;;;;;5054868;28;20132;-48
2021/04/17 03:04:00;;;;;;;3.00;1.75;;;12.80;91.20;;;;;;5054937;28;20407;-52
2021/04/17 03:06:27;;;;;;;4.13;1.98;;;12.80;91.30;;;;;;5053428;28;20461;-49
2021/04/17 03:08:54;;;;;;;4.60;2.15;;;12.90;91.60;;;;;;5055087;28;20087;-48
2021/04/17 03:11:21;;;;;;;3.28;2.42;;;12.80;91.70;;;;;;5053390;28;20079;-48
2021/04/17 03:13:48;;;;;;;4.00;2.17;;;12.80;91.90;;;;;;5054848;28;20106;-48
2021/04/17 03:16:15;;;;;;;4.30;1.75;;;12.80;92.00;;;;;;5054108;28;20045;-49
2021/04/17 03:18:43;;;;;;;4.40;2.30;;;12.80;92.10;;;;;;5053501;28;20521;-49
2021/04/17 03:21:10;;;;;;;5.38;1.95;;;12.90;92.30;;;;;;5053826;28;20072;-50
2021/04/17 03:23:37;;;;;;;5.13;1.85;;;12.80;92.40;;;;;;5054758;28;20041;-49
2021/04/17 03:26:05;;;;;;;3.72;2.08;;;12.80;92.40;;;;;;5054258;28;20049;-48
2021/04/17 03:28:32;;;;;;;4.10;1.75;;;12.80;92.40;;;;;;5054684;28;20090;-49
2021/04/17 03:30:59;;;;;;;4.88;2.15;;;12.80;92.50;;;;;;5052463;28;20041;-50
2021/04/17 03:33:27;;;;;;;4.43;1.52;;;12.80;92.60;;;;;;5054504;28;20045;-49
2021/04/17 03:35:54;;;;;;;4.30;2.10;;;12.80;92.50;;;;;;5053667;28;20045;-49
2021/04/17 03:38:21;;;;;;;4.68;2.22;;;12.80;92.50;;;;;;5054414;28;20044;-49
2021/04/17 03:40:49;;;;;;;2.13;1.50;;;12.80;92.50;;;;;;5052655;28;20047;-50
2021/04/17 03:43:16;;;;;;;4.45;2.13;;;12.80;92.60;;;;;;5054038;28;20122;-48
2021/04/17 03:45:44;;;;;;;5.43;2.22;;;12.80;92.70;;;;;;5053345;28;20053;-50
2021/04/17 03:48:12;;;;;;;8.00;3.60;;;12.80;92.70;;;;;;5054083;28;20052;-49
2021/04/17 03:50:40;;;;;;;4.15;2.50;;;12.80;92.90;;;;;;5053325;28;20041;-51
2021/04/17 03:53:07;;;;;;;3.80;1.98;;;12.80;92.90;;;;;;5053802;28;20041;-48
2021/04/17 03:55:34;;;;;;;6.18;2.20;;;12.80;93.00;;;;;;5052508;28;20083;-49
2021/04/17 03:58:01;;;;;;;6.68;2.55;;;12.80;93.00;;;;;;5053779;28;20037;-48
2021/04/17 04:00:29;;;;;;;3.90;2.10;;;12.80;93.10;;;;;;5052916;28;20060;-49
2021/04/17 04:02:56;;;;;;;6.28;2.65;;;12.80;93.10;;;;;;5052095;28;20515;-49
2021/04/17 04:05:23;;;;;;;7.47;3.10;;;12.90;93.10;;;;;;5053039;28;20041;-49
2021/04/17 04:07:51;;;;;;;12.88;3.83;;;12.90;92.90;;;;;;5053724;28;20045;-48
2021/04/17 04:10:18;;;;;;;6.60;2.90;;;12.90;92.90;;;;;;5051520;28;20048;-48
2021/04/17 04:12:45;;;;;;;5.80;3.45;;;12.90;92.90;;;;;;5053574;28;20048;-49
2021/04/17 04:15:14;;;;;;;5.70;3.40;;;12.80;92.80;;;;;;5052907;28;20049;-49
2021/04/17 04:17:42;;;;;;;5.18;3.13;;;12.80;92.70;;;;;;5053591;28;20044;-49
2021/04/17 04:20:09;;;;;;;9.45;3.90;;;12.80;92.80;;;;;;5052755;28;20526;-50
2021/04/17 04:22:37;;;;;;;7.10;4.00;;;12.90;92.70;;;;;;5050852;28;20045;-52
2021/04/17 04:25:06;;;;;;;6.40;4.03;;;12.80;92.70;;;;;;5052440;28;20053;-49
2021/04/17 04:27:37;;;;;;;9.05;4.60;;;12.90;92.80;;;;;;5052958;28;20492;-48
2021/04/17 04:30:07;;;;;;;6.55;3.42;;;12.90;92.80;;;;;;5051149;28;20103;-48
2021/04/17 04:32:35;;;;;;;5.40;3.38;;;12.80;93.00;;;;;;5053284;28;20447;-49
2021/04/17 04:35:03;;;;;;;5.60;4.28;;;12.90;93.20;;;;;;5052719;28;20053;-48
2021/04/17 04:37:31;;;;;;;5.18;3.30;;;12.90;93.30;;;;;;5051963;28;20045;-48
2021/04/17 04:39:58;;;;;;;7.95;4.07;;;12.90;93.40;;;;;;5052729;28;20056;-49
2021/04/17 04:42:26;;;;;;;5.82;3.67;;;12.90;93.70;;;;;;5050976;28;20072;-50
2021/04/17 04:44:53;;;;;;;12.75;3.40;;;12.90;94.00;;;;;;5052268;28;20048;-52
2021/04/17 04:47:20;;;;;;;8.65;3.50;;;12.90;94.20;;;;;;5052505;28;20049;-48
2021/04/17 04:49:48;;;;;;;6.68;3.47;;;12.80;94.40;;;;;;5052326;28;20055;-49
2021/04/17 04:52:15;;;;;;;5.15;3.20;;;12.90;94.60;;;;;;5053122;28;20495;-48
2021/04/17 04:54:43;;;;;;;5.07;3.40;;;12.90;94.80;;;;;;5052015;28;20506;-49
2021/04/17 04:57:10;;;;;;;5.60;4.00;;;12.90;94.90;;;;;;5052719;28;20051;-50
2021/04/17 04:59:38;;;;;;;8.27;3.45;;;12.90;95.10;;;;;;5050932;28;20124;-49
2021/04/17 05:02:05;;;;;;;8.45;3.90;;;12.90;95.20;;;;;;5051300;28;20487;-48
2021/04/17 05:04:32;;;;;;;8.02;3.50;;;12.90;95.40;;;;;;5051888;28;20049;-50
2021/04/17 05:07:00;;;;;;;7.47;3.75;;;12.90;95.50;;;;;;5051582;28;20136;-48
2021/04/17 05:09:27;;;;;;;8.23;4.22;;;12.90;95.60;;;;;;5052128;28;20045;-49
2021/04/17 05:11:54;;;;;;;9.45;4.50;;;12.90;95.70;;;;;;5048622;28;20064;-49
2021/04/17 05:14:22;;;;;;;8.27;3.58;;;12.90;95.80;;;;;;5051125;28;20399;-49
2021/04/17 05:16:49;;;;;;;5.75;3.45;;;12.90;95.80;;;;;;5052756;28;20053;-48
2021/04/17 05:19:17;;;;;;;7.72;3.42;;;12.90;95.90;;;;;;5052167;28;20096;-49
2021/04/17 05:21:44;;;;;;;7.97;3.25;;;12.90;95.90;;;;;;5052376;28;20116;-49
2021/04/17 05:24:11;;;;;;;7.90;3.83;;;13.00;95.90;;;;;;5051154;28;20041;-49
2021/04/17 05:26:38;;;;;;;7.60;3.92;;;12.90;95.80;;;;;;5050704;28;20387;-48
2021/04/17 05:29:06;;;;;;;10.07;4.75;;;12.90;95.80;;;;;;5051998;28;20510;-50
2021/04/17 05:31:35;;;;;;;8.10;4.05;;;12.80;95.80;;;;;;5052634;28;20047;-49
2021/04/17 05:34:02;;;;;;;7.60;3.15;;;12.80;95.80;;;;;;5052454;28;20129;-50
2021/04/17 05:36:30;;;;;;;6.90;4.28;;;12.90;96.00;;;;;;5050884;28;20492;-48
2021/04/17 05:38:57;;;;;;;7.70;3.58;;;12.90;95.90;;;;;;5052328;28;20045;-51
2021/04/17 05:41:27;;;;;;;6.03;4.00;;;12.90;96.00;;;;;;5052205;28;20495;-48
2021/04/17 05:43:54;;;;;;;7.70;3.60;;;12.90;96.10;;;;;;5052639;28;20064;-48
2021/04/17 05:46:22;;;;;;;13.13;4.45;;;12.90;96.10;;;;;;5050722;28;20071;-48
2021/04/17 05:48:49;;;;;;;8.18;3.83;;;12.90;96.00;;;;;;5032636;28;20064;-49
2021/04/17 05:51:17;;;;;;;9.13;4.68;;;12.90;96.00;;;;;;5050932;28;20043;-49
2021/04/17 05:53:44;;;;;;;8.60;4.18;;;12.90;96.10;;;;;;5052702;28;20049;-49
2021/04/17 05:56:11;;;;;;;8.35;4.38;;;13.00;96.20;;;;;;5052155;28;20136;-47
2021/04/17 05:58:38;;;;;;;8.75;3.45;;;12.90;96.30;;;;;;5052540;28;20380;-49
2021/04/17 06:01:06;;;;;;;10.90;4.93;;;12.90;96.40;;;;;;5050752;28;20128;-51
2021/04/17 06:03:33;;;;;;;7.90;3.95;;;12.90;96.80;;;;;;5051172;28;20486;-51
2021/04/17 06:06:00;;;;;;;10.00;4.28;;;13.00;96.90;;;;;;5049524;28;20087;-47
2021/04/17 06:08:27;;;;;;;7.00;3.50;;;13.00;96.90;;;;;;5050226;28;20507;-47
2021/04/17 06:10:55;;;;;;;7.22;3.50;;;13.00;97.00;;;;;;5050072;28;20533;-57
2021/04/17 06:13:22;;;;;;;5.85;3.40;;;13.00;96.90;;;;;;5050287;28;20484;-48
2021/04/17 06:15:49;;;;;;;5.88;3.20;;;13.10;96.90;;;;;;5051674;28;20479;-48
2021/04/17 06:18:17;;;;;;;8.90;4.53;;;13.10;96.80;;;;;;5052128;28;20072;-48
2021/04/17 06:20:47;;;;;;;5.20;3.33;;;13.00;96.60;;;;;;5054035;28;20081;-48
2021/04/17 06:23:18;;;;;;;8.30;3.33;;;13.00;96.70;;;;;;5053808;28;20126;-50
2021/04/17 06:25:45;;;;;;;4.97;3.10;;;13.10;96.60;;;;;;5054427;28;20052;-49
2021/04/17 06:28:16;;;;;;;7.07;3.17;;;13.00;96.60;;;;;;5038447;28;20045;-48
2021/04/17 06:30:45;;;;;;;9.32;4.10;;;13.10;96.60;;;;;;5037385;28;20052;-48
2021/04/17 06:33:13;;;;;;;5.90;3.45;;;13.20;96.50;;;;;;5054440;28;20079;-48
2021/04/17 06:35:43;;;;;;;5.53;3.28;;;13.20;96.20;;;;;;5053709;28;20045;-48
2021/04/17 06:38:13;;;;;;;6.43;3.38;;;13.20;95.90;;;;;;5037772;28;20044;-49
2021/04/17 06:40:42;;;;;;;5.75;2.70;;;13.20;95.70;;;;;;5055159;28;20495;-50
2021/04/17 06:43:12;;;;;;;8.15;3.00;;;13.20;95.60;;;;;;5055365;28;20049;-48
2021/04/17 06:45:43;;;;;;;7.28;3.60;;;13.30;95.60;;;;;;5053807;28;20053;-51
2021/04/17 06:48:17;;;;;;;5.72;3.50;;;13.30;95.80;;;;;;5053960;28;20056;-49
2021/04/17 06:50:45;;;;;;;5.90;3.53;;;13.30;96.00;;;;;;5053782;28;20053;-50
2021/04/17 06:53:17;;;;;;;8.90;3.95;;;13.30;96.10;;;;;;5052285;28;20037;-48
2021/04/17 06:55:53;;;;;;;5.82;3.42;;;13.40;96.10;;;;;;5053876;28;20065;-48
2021/04/17 06:58:21;;;;;;;11.35;3.85;;;13.40;96.30;;;;;;5054113;28;20045;-49
2021/04/17 07:00:48;;;;;;;16.05;4.60;;;13.30;96.70;;;;;;5054575;28;20110;-48
2021/04/17 07:03:17;;;;;;;5.55;3.50;;;13.30;96.80;;;;;;5053008;28;20041;-52
2021/04/17 07:05:45;;;;;;;8.07;3.90;;;13.30;96.90;;;;;;5052517;28;20052;-49
2021/04/17 07:08:13;;;;;;;5.60;3.40;;;13.40;96.70;;;;;;5052550;28;20036;-49
2021/04/17 07:10:50;;;;;;;7.13;3.40;;;13.40;96.50;;;;;;5053522;28;20069;-50
2021/04/17 07:13:20;;;;;;;7.18;3.28;;;13.50;96.40;;;;;;5053649;28;20090;-48
2021/04/17 07:15:51;;;;;;;6.50;2.95;;;13.50;96.40;;;;;;5054197;28;20052;-50
2021/04/17 07:18:27;;;;;;;6.60;4.43;;;13.60;96.40;;;;;;5054233;28;20055;-50
2021/04/17 07:20:59;;;;;;;5.57;3.47;;;13.50;96.40;;;;;;5053756;28;20071;-49
2021/04/17 07:23:33;;;;;;;9.07;3.65;;;13.50;96.10;;;;;;5052358;28;20124;-51
2021/04/17 07:26:21;;;;;;;13.37;4.40;;;13.50;96.10;;;;;;5053544;28;20033;-51
2021/04/17 07:28:55;;;;;;;6.13;3.28;;;13.50;96.30;;;;;;5033404;28;20287;-48
2021/04/17 07:31:24;;;;;;;8.95;3.20;;;13.50;96.60;;;;;;5035531;28;20067;-51
2021/04/17 07:33:53;;;;;;;7.32;3.35;;;13.50;96.60;;;;;;5054049;28;20527;-48
2021/04/17 07:36:23;;;;;;;4.68;3.42;;;13.60;96.70;;;;;;5030542;28;20049;-49
2021/04/17 07:38:51;;;;;;;7.53;3.65;;;13.60;96.70;;;;;;5054387;28;20052;-49
2021/04/17 07:41:22;;;;;;;6.68;3.58;;;13.60;96.30;;;;;;5054392;28;20069;-50
2021/04/17 07:43:55;;;;;;;4.68;3.33;;;13.60;96.30;;;;;;5052974;28;20076;-49
2021/04/17 07:46:24;;;;;;;6.80;3.35;;;13.60;96.30;;;;;;5053190;28;20048;-51
2021/04/17 07:49:08;;;;;;;9.20;3.67;;;13.70;96.30;;;;;;5052997;28;20056;-53
2021/04/17 07:52:08;;;;;;;11.52;5.18;;;13.70;96.30;;;;;;5053617;28;20053;-49
2021/04/17 07:54:52;;;;;;;9.60;3.30;;;13.70;96.00;;;;;;5068697;28;20059;-54
2021/04/17 07:57:29;;;;;;;6.45;2.63;;;13.70;95.60;;;;;;5053829;28;20044;-48
2021/04/17 08:00:01;;;;;;;5.07;4.05;;;13.70;95.30;;;;;;5042168;28;20087;-49
2021/04/17 08:02:37;;;;;;;8.15;3.80;;;13.80;95.20;;;;;;5046936;28;20044;-53
2021/04/17 08:05:05;;;;;;;6.18;3.35;;;13.80;95.20;;;;;;5053228;28;20403;-52
2021/04/17 08:07:34;;;;;;;5.75;3.40;;;13.80;95.00;;;;;;5053943;28;20053;-51
2021/04/17 08:10:08;;;;;;;6.50;2.88;;;13.80;95.00;;;;;;5052334;28;20443;-53
2021/04/17 08:12:37;;;;;;;8.05;3.78;;;13.80;94.90;;;;;;5050923;28;20049;-51
2021/04/17 08:15:13;;;;;;;5.03;2.40;;;13.80;94.40;;;;;;5051580;28;20056;-48
2021/04/17 08:17:42;;;;;;;5.18;3.15;;;13.80;94.20;;;;;;5049555;28;20121;-52
2021/04/17 08:20:16;;;;;;;7.53;3.47;;;13.90;94.40;;;;;;5051883;28;20056;-49
2021/04/17 08:22:47;;;;;;;6.47;3.35;;;13.90;94.70;;;;;;5052384;28;20102;-50
2021/04/17 08:25:22;;;;;;;8.77;3.92;;;14.00;94.80;;;;;;5051964;28;20143;-52
2021/04/17 08:27:51;;;;;;;6.05;3.30;;;14.00;94.40;;;;;;5051729;28;20079;-48
2021/04/17 08:30:29;;;;;;;5.55;3.53;;;14.00;94.20;;;;;;5051787;28;20053;-53
2021/04/17 08:33:12;;;;;;;6.50;3.60;;;14.00;93.80;;;;;;5052668;28;20056;-52
2021/04/17 08:35:40;;;;;;;5.97;3.15;;;13.90;93.60;;;;;;5052334;28;20128;-53
2021/04/17 08:38:13;;;;;;;6.63;3.15;;;13.90;92.90;;;;;;5034798;28;20133;-51
2021/04/17 08:40:48;;;;;;;5.80;3.53;;;13.90;93.20;;;;;;5051394;28;20411;-49
2021/04/17 08:43:19;;;;;;;13.45;8.45;;;14.00;93.40;;;;;;5051232;28;20471;-53
2021/04/17 08:46:17;;;;;;;7.53;4.35;;;14.00;93.40;;;;;;5052485;28;20064;-50
2021/04/17 08:48:55;;;;;;;7.55;2.72;;;14.10;93.80;;;;;;5051904;28;20049;-53
2021/04/17 08:51:25;;;;;;;5.53;3.42;;;14.00;93.60;;;;;;5052227;28;20568;-51
2021/04/17 08:54:14;;;;;;;6.68;3.25;;;14.00;93.90;;;;;;5051425;28;20047;-50
2021/04/17 08:57:02;;;;;;;9.40;4.30;;;14.00;94.30;;;;;;5050343;28;20053;-53
2021/04/17 08:59:35;;;;;;;8.73;4.78;;;14.00;94.50;;;;;;5050753;28;20102;-52
2021/04/17 09:02:18;;;;;;;11.30;6.07;;;14.10;94.60;;;;;;5051708;28;20059;-51
2021/04/17 09:05:06;;;;;;;9.07;5.03;;;14.10;94.60;;;;;;5051160;28;20099;-52
2021/04/17 09:07:36;;;;;;;5.65;3.40;;;14.10;94.00;;;;;;5044576;28;20045;-53
2021/04/17 09:10:22;;;;;;;6.10;3.92;;;14.10;93.70;;;;;;5051718;28;20057;-55
2021/04/17 09:13:20;;;;;;;10.57;4.73;;;14.20;93.60;;;;;;5047071;28;20391;-53
2021/04/17 09:15:53;;;;;;;8.98;5.80;;;14.30;93.30;;;;;;5051428;28;20052;-53
2021/04/17 09:18:37;;;;;;;6.88;4.50;;;14.30;93.20;;;;;;5046095;28;20395;-50
2021/04/17 09:21:08;;;;;;;6.97;2.75;;;14.30;92.90;;;;;;5049896;28;20073;-49
2021/04/17 09:23:46;;;;;;;4.38;2.90;;;14.30;92.90;;;;;;5052069;28;20060;-49
2021/04/17 09:26:35;;;;;;;3.65;2.10;;;14.40;93.00;;;;;;5048506;28;20037;-50
2021/04/17 09:29:12;;;;;;;8.43;3.43;;;14.40;93.00;;;;;;5051473;28;20063;-54
2021/04/17 09:31:43;;;;;;;4.93;2.72;;;14.50;93.00;;;;;;5048392;28;20056;-51
2021/04/17 09:34:14;;;;;;;3.97;3.20;;;14.40;93.20;;;;;;5048773;28;20049;-52
2021/04/17 09:36:48;;;;;;;4.47;2.78;;;14.40;93.40;;;;;;5049069;28;20116;-54
2021/04/17 09:39:31;;;;;;;5.28;2.80;;;14.40;93.50;;;;;;5049844;28;20259;-53
2021/04/17 09:42:01;;;;;;;5.07;3.28;;;14.50;93.30;;;;;;5049128;28;20102;-52
2021/04/17 09:44:46;;;;;;;4.78;3.08;;;14.50;93.10;;;;;;5049620;28;20065;-54
2021/04/17 09:47:18;;;;;;;5.70;2.65;;;14.50;93.10;;;;;;5050031;28;20139;-54
2021/04/17 09:49:50;;;;;;;3.92;2.53;;;14.60;93.00;;;;;;5049718;28;20041;-52
2021/04/17 09:52:20;;;;;;;5.13;3.17;;;14.60;93.20;;;;;;5045858;28;20372;-53
2021/04/17 09:55:03;;;;;;;5.68;3.53;;;14.60;93.10;;;;;;5053199;28;20132;-53
2021/04/17 09:57:32;;;;;;;7.35;4.15;;;14.60;93.00;;;;;;5055781;28;20051;-53
2021/04/17 10:00:01;;;;;;;8.10;3.15;;;14.70;93.10;;;;;;5053696;28;20049;-52
2021/04/17 10:02:46;;;;;;;6.45;3.30;;;14.60;92.90;;;;;;5052711;28;20057;-52
2021/04/17 10:05:34;;;;;;;6.40;3.25;;;14.60;93.10;;;;;;5052599;28;20041;-53
2021/04/17 10:08:04;;;;;;;6.07;2.40;;;14.60;93.00;;;;;;5054341;28;20045;-54
2021/04/17 10:10:36;;;;;;;5.97;3.80;;;14.60;92.90;;;;;;5052419;28;20479;-50
2021/04/17 10:13:04;;;;;;;3.13;2.60;;;14.70;92.70;;;;;;5053208;28;20052;-51
2021/04/17 10:15:34;;;;;;;6.65;3.13;;;14.70;92.80;;;;;;5054885;28;20053;-51
2021/04/17 10:18:04;;;;;;;5.13;2.75;;;14.70;92.90;;;;;;5053917;28;20083;-50
2021/04/17 10:20:35;;;;;;;4.57;2.90;;;14.60;93.00;;;;;;5054085;28;20053;-49
2021/04/17 10:23:03;;;;;;;5.10;3.15;;;14.70;92.90;;;;;;5053726;28;20049;-51
2021/04/17 10:25:45;;;;;;;6.95;2.53;;;14.70;93.00;;;;;;5055179;28;20163;-47
2021/04/17 10:28:23;;;;;;;5.10;2.33;;;14.70;92.70;;;;;;5054941;28;20115;-49
2021/04/17 10:30:54;;;;;;;5.45;3.10;;;14.70;92.10;;;;;;5052862;28;20041;-52
2021/04/17 10:33:27;;;;;;;6.22;2.55;;;14.80;92.10;;;;;;5055127;28;20395;-50
2021/04/17 10:35:58;;;;;;;3.40;2.17;;;14.80;92.20;;;;;;5054176;28;20060;-51
2021/04/17 10:38:31;;;;;;;4.30;2.25;;;14.70;92.10;;;;;;5053992;28;20049;-47
2021/04/17 10:41:01;;;;;;;4.55;2.50;;;14.80;92.10;;;;;;5052654;28;20376;-48
2021/04/17 10:43:32;;;;;;;4.97;2.67;;;14.90;91.90;;;;;;5051954;28;20041;-53
2021/04/17 10:46:05;;;;;;;4.72;2.42;;;14.80;92.00;;;;;;5054345;28;20126;-49
2021/04/17 10:48:46;;;;;;;5.40;2.88;;;14.70;91.10;;;;;;5051537;28;20110;-52
2021/04/17 10:51:16;;;;;;;7.50;3.20;;;14.80;90.30;;;;;;5051638;28;20049;-49
2021/04/17 10:53:47;;;;;;;5.45;2.78;;;14.70;90.70;;;;;;5054687;28;20491;-52
2021/04/17 10:56:21;;;;;;;5.85;3.42;;;14.80;90.80;;;;;;5053460;28;20056;-50
2021/04/17 10:59:04;;;;;;;6.88;4.18;;;14.80;91.10;;;;;;5032535;28;20049;-52
2021/04/17 11:01:38;;;;;;;6.25;3.22;;;14.60;91.30;;;;;;5054030;28;20102;-52
2021/04/17 11:04:05;;;;;;;12.80;5.05;;;14.70;91.20;;;;;;5054651;28;20071;-51
2021/04/17 11:06:36;;;;;;;7.10;4.53;;;14.70;91.40;;;;;;5054370;28;20147;-52
2021/04/17 11:09:10;;;;;;;11.05;4.07;;;14.70;91.50;;;;;;5053018;28;20053;-52
2021/04/17 11:11:57;;;;;;;4.72;3.85;;;14.60;91.60;;;;;;5031687;28;20096;-51
2021/04/17 11:14:30;;;;;;;6.95;3.72;;;14.70;92.10;;;;;;5039060;28;20052;-49
2021/04/17 11:16:58;;;;;;;7.03;3.45;;;14.60;91.20;;;;;;5048707;28;20052;-53
2021/04/17 11:19:36;;;;;;;7.60;4.10;;;14.50;91.00;;;;;;5036298;28;20053;-51
2021/04/17 11:22:24;;;;;;;10.15;5.03;;;14.50;91.30;;;;;;5051371;28;20392;-53
2021/04/17 11:25:04;;;;;;;5.00;3.63;;;14.50;91.70;;;;;;5041738;28;20068;-49
2021/04/17 11:27:32;;;;;;;9.98;4.40;;;14.60;91.40;;;;;;5045822;28;20673;-51
2021/04/17 11:30:02;;;;;;;5.93;3.08;;;14.60;91.00;;;;;;5053690;28;20435;-50
2021/04/17 11:32:29;;;;;;;10.68;5.40;;;14.60;91.20;;;;;;5052694;28;20045;-50
2021/04/17 11:34:57;;;;;;;6.70;3.17;;;14.60;91.50;;;;;;5051900;28;20064;-54
2021/04/17 11:37:29;;;;;;;10.20;4.45;;;14.60;92.10;;;;;;5051981;28;20136;-53
2021/04/17 11:39:57;;;;;;;7.07;4.03;;;14.60;92.20;;;;;;5052242;28;20088;-55
2021/04/17 11:42:29;;;;;;;6.35;3.45;;;14.70;92.20;;;;;;5051214;28;20055;-53
2021/04/17 11:44:59;;;;;;;4.72;3.08;;;14.60;92.30;;;;;;5034909;28;20128;-51
2021/04/17 11:47:29;;;;;;;8.52;3.10;;;14.70;92.40;;;;;;5052063;28;20487;-51
2021/04/17 11:50:01;;;;;;;5.93;3.70;;;14.80;92.70;;;;;;5053477;28;20068;-51
2021/04/17 11:52:31;;;;;;;6.22;3.60;;;14.80;92.80;;;;;;5053898;28;20507;-50
2021/04/17 11:54:59;;;;;;;4.18;2.72;;;14.80;92.60;;;;;;5053107;28;20084;-50
2021/04/17 11:57:30;;;;;;;5.03;3.67;;;14.80;92.30;;;;;;5047147;28;20483;-50
2021/04/17 11:59:57;;;;;;;5.15;3.15;;;14.80;92.40;;;;;;5053221;28;20083;-49
2021/04/17 12:02:31;;;;;;;4.60;3.00;;;14.90;92.40;;;;;;5051915;28;20052;-54
2021/04/17 12:05:05;;;;;;;3.40;2.15;;;14.90;92.20;;;;;;5051956;28;20488;-52
2021/04/17 12:07:39;;;;;;;4.57;2.30;;;14.90;92.10;;;;;;5052430;28;20099;-54
2021/04/17 12:10:17;;;;;;;10.75;3.00;;;14.80;91.80;;;;;;5052619;28;20103;-52
2021/04/17 12:12:50;;;;;;;4.80;3.40;;;14.90;91.70;;;;;;5054244;28;20052;-52
2021/04/17 12:15:27;;;;;;;5.65;3.60;;;14.80;91.80;;;;;;5053128;28;21012;-50
2021/04/17 12:17:58;;;;;;;3.65;2.42;;;14.80;91.70;;;;;;5051696;28;20458;-51
2021/04/17 12:20:41;;;;;;;4.18;2.65;;;14.80;91.90;;;;;;5052885;28;20506;-54
2021/04/17 12:23:18;;;;;;;4.53;3.15;;;14.90;91.90;;;;;;5052163;28;20095;-49
2021/04/17 12:25:47;;;;;;;5.25;2.88;;;14.90;91.90;;;;;;5052326;28;20049;-52
2021/04/17 12:28:17;;;;;;;4.43;2.60;;;14.90;91.90;;;;;;5051886;28;20122;-49
2021/04/17 12:30:56;;;;;;;5.28;3.38;;;14.90;92.20;;;;;;5052773;28;20037;-51
2021/04/17 12:33:27;;;;;;;5.03;3.33;;;14.80;92.50;;;;;;5052748;28;20064;-53
2021/04/17 12:35:57;;;;;;;4.90;3.03;;;14.80;92.70;;;;;;5015181;28;20083;-53
2021/04/17 12:38:33;;;;;;;7.35;3.00;;;14.80;92.60;;;;;;5052254;28;20045;-52
2021/04/17 12:41:04;;;;;;;8.02;2.58;;;14.90;92.50;;;;;;5051450;28;20056;-51
2021/04/17 12:43:38;;;;;;;5.80;3.13;;;14.80;92.30;;;;;;5051594;28;20049;-53
2021/04/17 12:46:11;;;;;;;5.75;3.00;;;14.80;92.30;;;;;;5051981;28;20064;-52
2021/04/17 12:48:38;;;;;;;4.55;2.97;;;14.80;92.00;;;;;;5053305;28;20048;-52
2021/04/17 12:51:14;;;;;;;7.00;2.85;;;14.70;92.00;;;;;;5051195;28;20056;-54
2021/04/17 12:53:41;;;;;;;3.58;2.85;;;14.70;91.40;;;;;;5052611;28;20041;-55
2021/04/17 12:56:14;;;;;;;5.95;3.60;;;14.70;91.10;;;;;;5051808;28;20053;-49
2021/04/17 12:58:45;;;;;;;10.18;3.50;;;14.60;90.60;;;;;;5052989;28;20207;-54
2021/04/17 13:01:19;;;;;;;7.15;3.22;;;14.60;90.70;;;;;;5066495;28;20052;-51
2021/04/17 13:03:53;;;;;;;4.18;2.83;;;14.50;91.20;;;;;;5051548;28;20498;-50
2021/04/17 13:06:30;;;;;;;6.72;3.67;;;14.50;91.40;;;;;;5033506;28;20049;-54